Time;durP1;ratioP1;P1;durP2;ratioP2;P2;SDS_P1;SDS_P2;PMS_P1;PMS_P2;Temp;Humidity;BMP_temperature;BMP_pressure;BME280_temperature;BME280_humidity;BME280_pressure;Samples;Min_cycle;Max_cycle;Signal;HPM_P1;HPM_P2
2022/04/09 00:00:59;;;;;;;;;;;4.10;99.90;;;;;;4966525;28;19977;-83
2022/04/09 00:03:24;;;;;;;;;;;4.00;99.90;;;;;;4972850;28;20024;-79
2022/04/09 00:05:50;;;;;;;;;;;4.00;99.90;;;;;;4954482;28;20373;-80
2022/04/09 00:08:15;;;;;;;;;;;4.00;99.90;;;;;;4970251;28;19932;-80
2022/04/09 00:10:41;;;;;;;;;;;4.10;99.90;;;;;;4968346;28;19925;-81
2022/04/09 00:13:06;;;;;;;;;;;4.10;99.90;;;;;;4971122;28;19922;-80
2022/04/09 00:15:32;;;;;;;;;;;4.10;99.90;;;;;;4973000;28;19965;-81
2022/04/09 00:17:57;;;;;;;;;;;4.20;99.90;;;;;;4973128;28;19945;-81
2022/04/09 00:20:23;;;;;;;;;;;4.10;99.90;;;;;;4974623;28;19925;-81
2022/04/09 00:22:49;;;;;;;;;;;4.10;99.90;;;;;;4974435;28;20276;-82
2022/04/09 00:25:15;;;;;;;;;;;4.10;99.90;;;;;;4972492;28;19933;-81
2022/04/09 00:27:40;;;;;;;;;;;4.10;99.90;;;;;;4972008;28;19922;-82
2022/04/09 00:30:08;;;;;;;;;;;4.10;99.90;;;;;;4972182;28;19933;-80
2022/04/09 00:32:34;;;;;;;;;;;4.10;99.90;;;;;;4975098;28;20287;-80
2022/04/09 00:34:59;;;;;;;;;;;4.10;99.90;;;;;;4958236;28;19928;-80
2022/04/09 00:37:25;;;;;;;;;;;4.00;99.90;;;;;;4973997;28;19933;-82
2022/04/09 00:39:50;;;;;;;;;;;4.00;99.90;;;;;;4973446;28;19926;-81
2022/04/09 00:42:18;;;;;;;;;;;3.90;99.90;;;;;;4972613;28;19944;-80
2022/04/09 00:44:43;;;;;;;;;;;3.80;99.90;;;;;;4973385;28;20024;-81
2022/04/09 00:47:09;;;;;;;;;;;3.80;99.90;;;;;;4983666;28;20017;-80
2022/04/09 00:49:38;;;;;;;;;;;3.80;99.90;;;;;;4954766;28;19953;-81
2022/04/09 00:52:04;;;;;;;;;;;3.90;99.90;;;;;;4957320;28;19928;-80
2022/04/09 00:54:31;;;;;;;;;;;3.90;99.90;;;;;;4973852;28;19922;-80
2022/04/09 00:57:01;;;;;;;;;;;3.80;99.90;;;;;;4973202;28;21194;-81
2022/04/09 00:59:29;;;;;;;;;;;3.90;99.90;;;;;;4968755;28;19922;-80
2022/04/09 01:01:55;;;;;;;;;;;3.90;99.90;;;;;;4971936;28;20311;-81
2022/04/09 01:04:20;;;;;;;;;;;3.90;99.90;;;;;;4970464;28;19921;-80
2022/04/09 01:06:46;;;;;;;;;;;3.90;99.90;;;;;;4972245;28;19925;-81
2022/04/09 01:09:11;;;;;;;;;;;3.90;99.90;;;;;;4973208;28;19927;-79
2022/04/09 01:11:38;;;;;;;;;;;4.00;99.90;;;;;;4973407;28;19921;-79
2022/04/09 01:14:04;;;;;;;;;;;4.00;99.90;;;;;;4976460;28;19965;-79
2022/04/09 01:16:30;;;;;;;;;;;4.00;99.90;;;;;;4972732;28;20111;-80
2022/04/09 01:18:57;;;;;;;;;;;4.10;99.90;;;;;;4972186;28;19921;-79
2022/04/09 01:21:23;;;;;;;;;;;4.10;99.90;;;;;;4972305;28;19922;-80
2022/04/09 01:23:49;;;;;;;;;;;4.10;99.90;;;;;;4956550;28;19936;-81
2022/04/09 01:26:15;;;;;;;;;;;4.10;99.90;;;;;;4972133;28;19926;-80
2022/04/09 01:28:40;;;;;;;;;;;4.20;99.90;;;;;;4972657;28;20122;-81
2022/04/09 01:31:06;;;;;;;;;;;4.10;99.90;;;;;;4971897;28;20285;-80
2022/04/09 01:33:31;;;;;;;;;;;4.10;99.90;;;;;;4972804;28;20029;-80
2022/04/09 01:35:57;;;;;;;;;;;4.00;99.90;;;;;;4968587;28;20016;-80
2022/04/09 01:38:22;;;;;;;;;;;4.00;99.90;;;;;;4972761;28;19922;-79
2022/04/09 01:40:48;;;;;;;;;;;4.00;99.90;;;;;;4972432;28;20392;-80
2022/04/09 01:43:13;;;;;;;;;;;3.90;99.90;;;;;;4971296;28;20556;-79
2022/04/09 01:45:39;;;;;;;;;;;3.90;99.90;;;;;;4971425;28;19996;-82
2022/04/09 01:48:04;;;;;;;;;;;3.90;99.90;;;;;;4988667;28;19973;-81
2022/04/09 01:50:30;;;;;;;;;;;3.80;99.90;;;;;;4968912;28;19926;-82
2022/04/09 01:52:55;;;;;;;;;;;3.80;99.90;;;;;;4972772;28;19934;-80
2022/04/09 01:55:21;;;;;;;;;;;3.80;99.90;;;;;;4973243;28;19937;-79
2022/04/09 01:57:48;;;;;;;;;;;3.80;99.90;;;;;;4957415;28;20387;-79
2022/04/09 02:00:14;;;;;;;;;;;3.80;99.90;;;;;;4971254;28;20073;-80
2022/04/09 02:02:40;;;;;;;;;;;3.80;99.90;;;;;;4970852;28;20384;-80
2022/04/09 02:05:06;;;;;;;;;;;3.70;99.90;;;;;;4971826;28;19961;-80
2022/04/09 02:07:31;;;;;;;;;;;3.70;99.90;;;;;;4972417;28;19976;-80
2022/04/09 02:09:57;;;;;;;;;;;3.70;99.90;;;;;;4970561;28;20040;-80
2022/04/09 02:12:22;;;;;;;;;;;3.70;99.90;;;;;;4970458;28;20400;-80
2022/04/09 02:14:48;;;;;;;;;;;3.70;99.90;;;;;;4970064;28;19948;-79
2022/04/09 02:17:13;;;;;;;;;;;3.70;99.90;;;;;;4957082;28;20175;-80
2022/04/09 02:19:39;;;;;;;;;;;3.60;99.90;;;;;;4971884;28;19921;-80
2022/04/09 02:22:05;;;;;;;;;;;3.60;99.90;;;;;;4972112;28;20303;-79
2022/04/09 02:24:31;;;;;;;;;;;3.50;99.90;;;;;;4951741;28;19925;-81
2022/04/09 02:26:56;;;;;;;;;;;3.50;99.90;;;;;;4970434;28;19937;-80
2022/04/09 02:29:22;;;;;;;;;;;3.50;99.90;;;;;;4968089;28;19932;-81
2022/04/09 02:31:47;;;;;;;;;;;3.50;99.90;;;;;;4973301;28;19922;-79
2022/04/09 02:34:13;;;;;;;;;;;3.50;99.90;;;;;;4956965;28;19933;-79
2022/04/09 02:36:38;;;;;;;;;;;3.50;99.90;;;;;;4969516;28;19925;-79
2022/04/09 02:39:04;;;;;;;;;;;3.50;99.90;;;;;;4972781;28;19968;-80
2022/04/09 02:41:30;;;;;;;;;;;3.50;99.90;;;;;;4964896;28;19952;-80
2022/04/09 02:43:55;;;;;;;;;;;3.50;99.90;;;;;;4969468;28;19922;-80
2022/04/09 02:46:21;;;;;;;;;;;3.50;99.90;;;;;;4971748;28;19929;-80
2022/04/09 02:48:47;;;;;;;;;;;3.50;99.90;;;;;;4968306;28;20270;-80
2022/04/09 02:51:12;;;;;;;;;;;3.50;99.90;;;;;;4969945;28;20404;-82
2022/04/09 02:53:38;;;;;;;;;;;3.50;99.90;;;;;;4971762;28;20295;-80
2022/04/09 02:56:04;;;;;;;;;;;3.50;99.90;;;;;;4971206;28;19953;-81
2022/04/09 02:58:29;;;;;;;;;;;3.40;99.90;;;;;;4972386;28;20399;-80
2022/04/09 03:00:55;;;;;;;;;;;3.40;99.90;;;;;;4955372;28;19929;-81
2022/04/09 03:03:20;;;;;;;;;;;3.40;99.90;;;;;;4953563;28;19954;-82
2022/04/09 03:05:46;;;;;;;;;;;3.40;99.90;;;;;;4970534;28;19953;-80
2022/04/09 03:08:12;;;;;;;;;;;3.40;99.90;;;;;;4969888;28;19922;-80
2022/04/09 03:10:37;;;;;;;;;;;3.40;99.90;;;;;;4971012;28;19933;-81
2022/04/09 03:13:06;;;;;;;;;;;3.40;99.90;;;;;;4971663;28;20392;-80
2022/04/09 03:15:31;;;;;;;;;;;3.40;99.90;;;;;;4970357;28;20385;-81
2022/04/09 03:17:57;;;;;;;;;;;3.50;99.90;;;;;;4956921;28;19929;-81
2022/04/09 03:20:22;;;;;;;;;;;3.50;99.90;;;;;;4970005;28;19922;-79
2022/04/09 03:22:48;;;;;;;;;;;3.40;99.90;;;;;;4973124;28;19976;-81
2022/04/09 03:25:14;;;;;;;;;;;3.50;99.90;;;;;;4969814;28;19926;-80
2022/04/09 03:27:39;;;;;;;;;;;3.50;99.90;;;;;;4971891;28;19960;-80
2022/04/09 03:30:06;;;;;;;;;;;3.50;99.90;;;;;;4969499;28;19932;-80
2022/04/09 03:32:31;;;;;;;;;;;3.50;99.90;;;;;;4971338;28;19926;-81
2022/04/09 03:34:57;;;;;;;;;;;3.50;99.90;;;;;;4971391;28;19984;-80
2022/04/09 03:37:23;;;;;;;;;;;3.50;99.90;;;;;;4971501;28;20376;-81
2022/04/09 03:39:49;;;;;;;;;;;3.50;99.90;;;;;;4974144;28;19968;-81
2022/04/09 03:42:15;;;;;;;;;;;3.60;99.90;;;;;;4971541;28;19926;-81
2022/04/09 03:44:41;;;;;;;;;;;3.60;99.90;;;;;;4969460;28;20289;-82
2022/04/09 03:47:06;;;;;;;;;;;3.70;99.90;;;;;;4968763;28;19983;-81
2022/04/09 03:49:32;;;;;;;;;;;3.70;99.90;;;;;;4970834;28;19933;-81
2022/04/09 03:51:58;;;;;;;;;;;3.60;99.90;;;;;;4975309;28;19930;-80
2022/04/09 03:54:23;;;;;;;;;;;3.60;99.90;;;;;;4975107;28;20407;-82
2022/04/09 03:56:49;;;;;;;;;;;3.50;99.90;;;;;;4975823;28;19922;-81
2022/04/09 03:59:15;;;;;;;;;;;3.50;99.90;;;;;;4973137;28;20660;-81
2022/04/09 04:01:43;;;;;;;;;;;3.40;99.90;;;;;;4990484;28;19944;-81
2022/04/09 04:04:10;;;;;;;;;;;3.40;99.90;;;;;;4973254;28;20415;-80
2022/04/09 04:06:35;;;;;;;;;;;3.40;99.90;;;;;;4960353;28;20012;-81
2022/04/09 04:09:01;;;;;;;;;;;3.40;99.90;;;;;;4973078;28;20642;-81
2022/04/09 04:11:27;;;;;;;;;;;3.40;99.90;;;;;;4974095;28;19922;-80
2022/04/09 04:13:53;;;;;;;;;;;3.40;99.90;;;;;;4972016;28;19922;-81
2022/04/09 04:16:19;;;;;;;;;;;3.40;99.90;;;;;;4974132;28;20034;-81
2022/04/09 04:18:44;;;;;;;;;;;3.40;99.90;;;;;;4959267;28;19925;-82
2022/04/09 04:21:10;;;;;;;;;;;3.40;99.90;;;;;;4971305;28;19995;-80
2022/04/09 04:23:35;;;;;;;;;;;3.40;99.90;;;;;;4972983;28;19926;-81
2022/04/09 04:26:01;;;;;;;;;;;3.40;99.90;;;;;;4973887;28;19930;-81
2022/04/09 04:28:26;;;;;;;;;;;3.40;99.90;;;;;;4975368;28;19926;-81
2022/04/09 04:30:52;;;;;;;;;;;3.40;99.90;;;;;;4957330;28;19941;-80
2022/04/09 04:33:17;;;;;;;;;;;3.30;99.90;;;;;;4971837;28;19921;-81
2022/04/09 04:35:43;;;;;;;;;;;3.30;99.90;;;;;;4990857;28;19929;-81
2022/04/09 04:38:09;;;;;;;;;;;3.30;99.90;;;;;;4972744;28;19928;-81
2022/04/09 04:40:34;;;;;;;;;;;3.20;99.90;;;;;;4959091;28;20393;-80
2022/04/09 04:43:00;;;;;;;;;;;3.20;99.90;;;;;;4972105;28;21150;-81
2022/04/09 04:45:25;;;;;;;;;;;3.30;99.90;;;;;;4971571;28;20014;-84
2022/04/09 04:47:51;;;;;;;;;;;3.30;99.90;;;;;;4973340;28;19932;-81
2022/04/09 04:50:17;;;;;;;;;;;3.40;99.90;;;;;;4974227;28;20439;-81
2022/04/09 04:52:43;;;;;;;;;;;3.30;99.90;;;;;;4974769;28;19928;-81
2022/04/09 04:55:09;;;;;;;;;;;3.40;99.90;;;;;;4972544;28;20607;-81
2022/04/09 04:57:44;;;;;;;;;;;3.40;99.90;;;;;;4972886;28;20010;-82
2022/04/09 05:00:10;;;;;;;;;;;3.40;99.90;;;;;;4970910;28;19926;-81
2022/04/09 05:02:36;;;;;;;;;;;3.50;99.90;;;;;;4970789;28;20284;-82
2022/04/09 05:05:02;;;;;;;;;;;3.50;99.90;;;;;;4974156;28;19926;-81
2022/04/09 05:07:37;;;;;;;;;;;3.60;99.90;;;;;;4971235;28;19972;-81
2022/04/09 05:10:03;;;;;;;;;;;3.60;99.90;;;;;;4971736;28;20523;-80
2022/04/09 05:12:29;;;;;;;;;;;3.60;99.90;;;;;;4969712;28;20031;-81
2022/04/09 05:14:54;;;;;;;;;;;3.60;99.90;;;;;;4987820;28;19968;-81
2022/04/09 05:17:20;;;;;;;;;;;3.60;99.90;;;;;;4973160;28;19929;-81
2022/04/09 05:19:45;;;;;;;;;;;3.60;99.90;;;;;;4973269;28;19977;-82
2022/04/09 05:22:11;;;;;;;;;;;3.50;99.90;;;;;;4972436;28;19922;-81
2022/04/09 05:24:36;;;;;;;;;;;3.60;99.90;;;;;;4955319;28;20407;-81
2022/04/09 05:27:02;;;;;;;;;;;3.70;99.90;;;;;;4973580;28;19922;-81
2022/04/09 05:29:27;;;;;;;;;;;3.70;99.90;;;;;;4974618;28;20384;-83
2022/04/09 05:31:53;;;;;;;;;;;3.70;99.90;;;;;;4969553;28;19930;-81
2022/04/09 05:34:19;;;;;;;;;;;3.80;99.90;;;;;;4971690;28;20387;-81
2022/04/09 05:36:44;;;;;;;;;;;3.80;99.90;;;;;;4958916;28;20428;-81
2022/04/09 05:39:11;;;;;;;;;;;3.90;99.90;;;;;;4974218;28;19992;-80
2022/04/09 05:41:36;;;;;;;;;;;3.90;99.90;;;;;;4968076;28;19926;-80
2022/04/09 05:44:02;;;;;;;;;;;4.00;99.90;;;;;;4974034;28;20032;-80
2022/04/09 05:46:27;;;;;;;;;;;4.00;99.90;;;;;;4987500;28;19921;-80
2022/04/09 05:48:53;;;;;;;;;;;4.10;99.90;;;;;;4973709;28;19968;-81
2022/04/09 05:51:18;;;;;;;;;;;4.10;99.90;;;;;;4969806;28;19932;-80
2022/04/09 05:53:44;;;;;;;;;;;4.10;99.90;;;;;;4973522;28;20518;-80
2022/04/09 05:56:09;;;;;;;;;;;4.20;99.90;;;;;;4971260;28;20337;-80
2022/04/09 05:58:36;;;;;;;;;;;4.30;99.90;;;;;;4972617;28;19926;-81
2022/04/09 06:01:02;;;;;;;;;;;4.30;99.90;;;;;;4955236;28;20444;-81
2022/04/09 06:03:27;;;;;;;;;;;4.40;99.90;;;;;;4970196;28;20016;-82
2022/04/09 06:05:53;;;;;;;;;;;4.40;99.90;;;;;;4969580;28;19968;-81
2022/04/09 06:08:18;;;;;;;;;;;4.50;99.90;;;;;;4973003;28;20372;-81
2022/04/09 06:10:44;;;;;;;;;;;4.50;99.90;;;;;;4973529;28;20007;-81
2022/04/09 06:13:12;;;;;;;;;;;4.60;99.90;;;;;;4968423;28;19929;-81
2022/04/09 06:15:38;;;;;;;;;;;4.70;99.90;;;;;;4973012;28;20376;-82
2022/04/09 06:18:06;;;;;;;;;;;4.70;99.90;;;;;;4973043;28;19925;-81
2022/04/09 06:20:32;;;;;;;;;;;4.90;99.90;;;;;;4986876;28;19921;-81
2022/04/09 06:22:59;;;;;;;;;;;5.00;99.90;;;;;;4971225;28;19968;-81
2022/04/09 06:25:25;;;;;;;;;;;5.00;99.90;;;;;;4972099;28;19929;-82
2022/04/09 06:27:50;;;;;;;;;;;5.00;99.90;;;;;;4974181;28;19928;-82
2022/04/09 06:30:16;;;;;;;;;;;4.90;99.90;;;;;;4974544;28;19926;-83
2022/04/09 06:32:41;;;;;;;;;;;4.80;99.90;;;;;;4972795;28;19926;-83
2022/04/09 06:35:07;;;;;;;;;;;4.70;99.90;;;;;;4978590;28;19968;-82
2022/04/09 06:37:36;;;;;;;;;;;4.60;99.90;;;;;;4972284;28;19925;-84
2022/04/09 06:40:01;;;;;;;;;;;4.50;99.90;;;;;;4999881;28;19933;-82
2022/04/09 06:42:27;;;;;;;;;;;4.50;99.90;;;;;;4989347;28;19922;-85
2022/04/09 06:44:53;;;;;;;;;;;4.50;99.90;;;;;;4966117;28;19956;-83
2022/04/09 06:47:18;;;;;;;;;;;4.60;99.90;;;;;;4968434;28;19921;-82
2022/04/09 06:49:44;;;;;;;;;;;4.50;99.90;;;;;;4967084;28;19930;-83
2022/04/09 06:52:09;;;;;;;;;;;4.60;99.90;;;;;;4996618;28;19981;-83
2022/04/09 06:54:34;;;;;;;;;;;4.60;99.90;;;;;;4975982;28;20326;-82
2022/04/09 06:57:00;;;;;;;;;;;4.70;99.90;;;;;;4971971;28;19925;-82
2022/04/09 06:59:25;;;;;;;;;;;4.80;99.90;;;;;;4973407;28;19960;-82
2022/04/09 07:01:51;;;;;;;;;;;4.90;99.90;;;;;;4972749;28;20460;-82
2022/04/09 07:04:16;;;;;;;;;;;5.10;99.90;;;;;;4978763;28;19922;-82
2022/04/09 07:06:44;;;;;;;;;;;5.30;99.90;;;;;;4977793;28;20380;-82
2022/04/09 07:09:09;;;;;;;;;;;5.50;99.90;;;;;;4977988;28;19925;-82
2022/04/09 07:11:35;;;;;;;;;;;5.70;99.90;;;;;;4962361;28;19994;-80
2022/04/09 07:14:00;;;;;;;;;;;5.90;99.90;;;;;;4978341;28;19929;-81
2022/04/09 07:16:26;;;;;;;;;;;6.00;99.90;;;;;;4961830;28;19948;-82
2022/04/09 07:18:51;;;;;;;;;;;6.10;99.90;;;;;;4968352;28;19957;-81
2022/04/09 07:21:17;;;;;;;;;;;6.20;99.90;;;;;;4996715;28;20379;-81
2022/04/09 07:23:42;;;;;;;;;;;6.20;99.90;;;;;;4981698;28;19969;-82
2022/04/09 07:26:08;;;;;;;;;;;6.30;99.90;;;;;;4977108;28;19925;-81
2022/04/09 07:28:33;;;;;;;;;;;6.50;99.90;;;;;;4977884;28;20348;-81
2022/04/09 07:30:59;;;;;;;;;;;6.60;99.90;;;;;;4977268;28;20392;-82
2022/04/09 07:33:24;;;;;;;;;;;6.70;99.90;;;;;;4977520;28;19933;-80
2022/04/09 07:35:50;;;;;;;;;;;6.80;99.90;;;;;;4974658;28;19929;-80
2022/04/09 07:38:15;;;;;;;;;;;6.90;99.90;;;;;;4974749;28;19961;-81
2022/04/09 07:40:41;;;;;;;;;;;7.00;99.90;;;;;;4967582;28;19921;-81
2022/04/09 07:43:07;;;;;;;;;;;7.10;99.90;;;;;;4955905;28;19922;-80
2022/04/09 07:45:33;;;;;;;;;;;7.20;99.90;;;;;;4966919;28;19948;-80
2022/04/09 07:47:59;;;;;;;;;;;7.30;99.90;;;;;;4967771;28;19930;-80
2022/04/09 07:50:28;;;;;;;;;;;7.50;99.90;;;;;;4962535;28;19934;-79
2022/04/09 07:52:53;;;;;;;;;;;7.50;99.90;;;;;;4967348;28;20028;-79
2022/04/09 07:55:19;;;;;;;;;;;7.40;99.90;;;;;;4966648;28;20052;-80
2022/04/09 07:57:45;;;;;;;;;;;7.40;99.90;;;;;;4966079;28;19954;-80
2022/04/09 08:00:11;;;;;;;;;;;7.60;99.90;;;;;;4970880;28;19922;-79
2022/04/09 08:02:37;;;;;;;;;;;7.90;99.90;;;;;;4966671;28;20431;-80
2022/04/09 08:05:02;;;;;;;;;;;7.90;99.90;;;;;;4986134;28;19965;-80
2022/04/09 08:07:28;;;;;;;;;;;7.80;99.90;;;;;;4968762;28;19922;-79
2022/04/09 08:09:53;;;;;;;;;;;7.70;99.90;;;;;;4967115;28;20426;-82
2022/04/09 08:12:19;;;;;;;;;;;7.60;99.90;;;;;;4968758;28;19929;-81
2022/04/09 08:14:44;;;;;;;;;;;7.70;99.90;;;;;;4972559;28;20030;-79
2022/04/09 08:17:10;;;;;;;;;;;7.80;99.90;;;;;;4968099;28;19933;-79
2022/04/09 08:19:36;;;;;;;;;;;7.90;99.90;;;;;;4955475;28;19922;-81
2022/04/09 08:22:02;;;;;;;;;;;8.00;99.90;;;;;;4970355;28;20009;-82
2022/04/09 08:24:28;;;;;;;;;;;7.90;99.90;;;;;;4967191;28;20013;-80
2022/04/09 08:26:53;;;;;;;;;;;7.90;99.90;;;;;;4969866;28;20008;-80
2022/04/09 08:29:20;;;;;;;;;;;8.10;99.90;;;;;;4970938;28;20025;-80
2022/04/09 08:31:47;;;;;;;;;;;8.20;99.90;;;;;;4970369;28;20339;-78
2022/04/09 08:34:13;;;;;;;;;;;8.20;99.90;;;;;;4969820;28;19976;-78
2022/04/09 08:36:39;;;;;;;;;;;8.30;99.90;;;;;;4971640;28;19921;-77
2022/04/09 08:39:04;;;;;;;;;;;8.30;99.90;;;;;;4975607;28;20016;-80
2022/04/09 08:41:30;;;;;;;;;;;8.40;99.90;;;;;;4974704;28;19956;-81
2022/04/09 08:43:55;;;;;;;;;;;8.50;99.90;;;;;;4973740;28;19929;-80
2022/04/09 08:46:22;;;;;;;;;;;8.70;99.90;;;;;;4971668;28;19922;-80
2022/04/09 08:48:49;;;;;;;;;;;8.90;99.90;;;;;;4975836;28;20347;-80
2022/04/09 08:51:14;;;;;;;;;;;9.00;99.90;;;;;;4970526;28;19929;-79
2022/04/09 08:53:40;;;;;;;;;;;9.00;99.90;;;;;;4971854;28;19929;-78
2022/04/09 08:56:06;;;;;;;;;;;8.90;99.90;;;;;;4956645;28;20343;-78
2022/04/09 08:58:31;;;;;;;;;;;8.70;99.90;;;;;;4971602;28;20012;-78
2022/04/09 09:00:57;;;;;;;;;;;8.70;99.90;;;;;;4972150;28;19930;-79
2022/04/09 09:03:23;;;;;;;;;;;8.90;99.90;;;;;;4972735;28;20024;-79
2022/04/09 09:05:52;;;;;;;;;;;8.80;99.90;;;;;;4971579;28;20008;-78
2022/04/09 09:08:35;;;;;;;;;;;8.60;99.90;;;;;;4955498;28;19926;-78
2022/04/09 09:11:00;;;;;;;;;;;8.70;99.90;;;;;;4973080;28;19925;-78
2022/04/09 09:13:26;;;;;;;;;;;9.10;99.90;;;;;;4972075;28;20354;-79
2022/04/09 09:15:52;;;;;;;;;;;9.50;99.90;;;;;;4973655;28;19936;-80
2022/04/09 09:18:19;;;;;;;;;;;9.70;99.90;;;;;;4971961;28;20005;-79
2022/04/09 09:20:52;;;;;;;;;;;9.50;99.90;;;;;;4971103;28;20075;-78
2022/04/09 09:23:21;;;;;;;;;;;9.20;99.90;;;;;;4969545;28;19930;-80
2022/04/09 09:25:47;;;;;;;;;;;9.20;99.90;;;;;;4972590;28;20060;-78
2022/04/09 09:28:13;;;;;;;;;;;9.50;99.90;;;;;;4972473;28;19929;-79
2022/04/09 09:30:48;;;;;;;;;;;9.90;99.90;;;;;;4966723;28;19933;-79
2022/04/09 09:33:14;;;;;;;;;;;10.30;99.90;;;;;;4971913;28;19926;-79
2022/04/09 09:35:47;;;;;;;;;;;10.30;99.90;;;;;;4973636;28;19921;-82
2022/04/09 09:38:23;;;;;;;;;;;8.90;99.90;;;;;;4973089;28;19929;-83
2022/04/09 09:40:48;;;;;;;;;;;6.60;99.90;;;;;;4974501;28;19937;-83
2022/04/09 09:43:14;;;;;;;;;;;5.50;99.90;;;;;;4974954;28;19925;-80
2022/04/09 09:45:41;;;;;;;;;;;5.10;99.90;;;;;;4978377;28;19926;-80
2022/04/09 09:48:17;;;;;;;;;;;5.00;99.90;;;;;;4971764;28;19922;-80
2022/04/09 09:50:43;;;;;;;;;;;4.90;99.90;;;;;;4955747;28;20407;-82
2022/04/09 09:53:08;;;;;;;;;;;4.90;99.90;;;;;;4973577;28;19922;-81
2022/04/09 09:55:41;;;;;;;;;;;5.10;99.90;;;;;;4973808;28;20193;-82
2022/04/09 09:58:07;;;;;;;;;;;5.10;99.90;;;;;;4973915;28;20292;-81
2022/04/09 10:00:33;;;;;;;;;;;5.10;99.90;;;;;;4972816;28;19926;-81
2022/04/09 10:02:59;;;;;;;;;;;5.10;99.90;;;;;;4956108;28;19961;-82
2022/04/09 10:05:25;;;;;;;;;;;5.20;99.90;;;;;;4976694;28;20339;-82
2022/04/09 10:07:50;;;;;;;;;;;5.30;99.90;;;;;;4972592;28;19922;-83
2022/04/09 10:10:16;;;;;;;;;;;5.60;99.90;;;;;;4971546;28;19926;-81
2022/04/09 10:12:42;;;;;;;;;;;6.00;99.90;;;;;;4958432;28;19929;-81
2022/04/09 10:15:08;;;;;;;;;;;6.60;99.90;;;;;;4973104;28;19926;-82
2022/04/09 10:17:34;;;;;;;;;;;7.00;99.90;;;;;;4973438;28;19937;-80
2022/04/09 10:20:02;;;;;;;;;;;7.40;99.90;;;;;;4972465;28;19922;-81
2022/04/09 10:22:28;;;;;;;;;;;7.90;99.90;;;;;;4989220;28;19921;-82
2022/04/09 10:24:54;;;;;;;;;;;8.20;99.90;;;;;;4972945;28;19980;-82
2022/04/09 10:27:37;;;;;;;;;;;8.10;99.90;;;;;;4988195;28;20378;-82
2022/04/09 10:30:03;;;;;;;;;;;7.20;99.90;;;;;;4974274;28;20012;-82
2022/04/09 10:32:42;;;;;;;;;;;6.10;99.90;;;;;;4970372;28;19992;-82
2022/04/09 10:35:24;;;;;;;;;;;5.60;99.90;;;;;;4974747;28;19968;-82
2022/04/09 10:38:13;;;;;;;;;;;5.30;99.90;;;;;;4988398;28;19921;-83
2022/04/09 10:40:44;;;;;;;;;;;5.10;99.90;;;;;;4967818;28;19929;-83
2022/04/09 10:43:31;;;;;;;;;;;5.00;99.90;;;;;;4987143;28;19922;-83
2022/04/09 10:46:17;;;;;;;;;;;4.90;99.90;;;;;;4971024;28;20411;-83
2022/04/09 10:48:44;;;;;;;;;;;5.10;99.90;;;;;;4972709;28;19977;-82
2022/04/09 10:51:11;;;;;;;;;;;5.60;99.90;;;;;;4954239;28;19930;-82
2022/04/09 10:53:38;;;;;;;;;;;6.20;99.90;;;;;;4972397;28;19922;-81
2022/04/09 10:56:31;;;;;;;;;;;6.80;99.90;;;;;;4970578;28;19921;-80
2022/04/09 10:59:06;;;;;;;;;;;7.30;99.90;;;;;;4967618;28;20300;-79
2022/04/09 11:01:47;;;;;;;;;;;7.80;99.90;;;;;;4970219;28;20361;-78
2022/04/09 11:07:10;;;;;;;;;;;8.30;99.90;;;;;;4970261;28;20345;-78
2022/04/09 11:09:41;;;;;;;;;;;8.50;99.90;;;;;;4953894;28;19930;-81
2022/04/09 11:12:07;;;;;;;;;;;8.30;99.90;;;;;;4970566;28;20284;-78
2022/04/09 11:14:42;;;;;;;;;;;8.10;99.90;;;;;;4973820;28;19929;-79
2022/04/09 11:17:14;;;;;;;;;;;7.90;99.90;;;;;;4970766;28;20434;-78
2022/04/09 11:19:39;;;;;;;;;;;7.80;99.90;;;;;;4987269;28;20016;-78
2022/04/09 11:22:05;;;;;;;;;;;7.70;99.90;;;;;;4968179;28;19934;-79
2022/04/09 11:24:37;;;;;;;;;;;7.80;99.90;;;;;;4968363;28;19922;-78
2022/04/09 11:27:02;;;;;;;;;;;8.00;99.90;;;;;;4968876;28;19922;-78
2022/04/09 11:29:35;;;;;;;;;;;8.50;99.90;;;;;;4969914;28;19996;-78
2022/04/09 11:32:00;;;;;;;;;;;8.90;99.90;;;;;;4968893;28;20376;-79
2022/04/09 11:34:26;;;;;;;;;;;9.40;99.90;;;;;;4965199;28;19922;-79
2022/04/09 11:37:11;;;;;;;;;;;9.20;99.90;;;;;;4971326;28;19925;-78
2022/04/09 11:39:40;;;;;;;;;;;8.90;99.90;;;;;;4975246;28;19921;-79
2022/04/09 11:42:06;;;;;;;;;;;8.50;99.90;;;;;;4960525;28;20004;-80
2022/04/09 11:44:31;;;;;;;;;;;8.10;99.90;;;;;;4974185;28;19921;-80
2022/04/09 11:46:58;;;;;;;;;;;7.40;99.90;;;;;;4972171;28;20288;-81
2022/04/09 11:49:33;;;;;;;;;;;6.90;99.90;;;;;;4976581;28;19933;-82
2022/04/09 11:51:58;;;;;;;;;;;6.70;99.90;;;;;;4977577;28;20049;-84
2022/04/09 11:54:25;;;;;;;;;;;6.70;99.90;;;;;;4973043;28;20808;-81
2022/04/09 11:56:50;;;;;;;;;;;6.80;99.90;;;;;;4976146;28;19925;-81
2022/04/09 11:59:16;;;;;;;;;;;7.10;99.90;;;;;;4977021;28;20013;-81
2022/04/09 12:01:45;;;;;;;;;;;7.40;99.90;;;;;;4960147;28;19922;-80
2022/04/09 12:04:11;;;;;;;;;;;7.80;99.90;;;;;;4976818;28;20365;-81
2022/04/09 12:06:37;;;;;;;;;;;7.90;99.90;;;;;;4976763;28;20420;-81
2022/04/09 12:09:03;;;;;;;;;;;7.80;99.90;;;;;;4961282;28;19922;-80
2022/04/09 12:11:28;;;;;;;;;;;7.70;99.90;;;;;;4978670;28;19948;-81
2022/04/09 12:13:53;;;;;;;;;;;7.70;99.90;;;;;;4980767;28;19922;-81
2022/04/09 12:16:19;;;;;;;;;;;7.80;99.90;;;;;;4979573;28;19928;-78
2022/04/09 12:18:46;;;;;;;;;;;7.90;99.90;;;;;;4979347;28;20361;-78
2022/04/09 12:21:21;;;;;;;;;;;8.10;99.90;;;;;;4979247;28;20013;-78
2022/04/09 12:24:02;;;;;;;;;;;8.40;99.90;;;;;;4981171;28;20295;-79
2022/04/09 12:26:28;;;;;;;;;;;8.80;99.90;;;;;;4980629;28;19921;-79
2022/04/09 12:29:09;;;;;;;;;;;8.80;99.90;;;;;;4981466;28;19944;-81
2022/04/09 12:31:35;;;;;;;;;;;8.40;99.90;;;;;;4968196;28;19969;-78
2022/04/09 12:34:01;;;;;;;;;;;7.80;99.90;;;;;;4965871;28;20365;-78
2022/04/09 12:36:27;;;;;;;;;;;7.70;99.90;;;;;;4979034;28;19929;-78
2022/04/09 12:38:52;;;;;;;;;;;7.50;99.90;;;;;;4980402;28;19922;-79
2022/04/09 12:41:18;;;;;;;;;;;7.10;99.90;;;;;;4980448;28;19976;-80
2022/04/09 12:43:44;;;;;;;;;;;6.70;99.90;;;;;;4980322;28;20402;-82
2022/04/09 12:46:13;;;;;;;;;;;6.50;99.90;;;;;;4979583;28;19921;-81
2022/04/09 12:48:39;;;;;;;;;;;6.50;99.90;;;;;;4996302;28;19921;-84
2022/04/09 12:51:05;;;;;;;;;;;6.70;99.90;;;;;;4980743;28;20384;-83
2022/04/09 12:53:31;;;;;;;;;;;7.50;99.90;;;;;;4980313;28;19929;-81
2022/04/09 12:55:56;;;;;;;;;;;8.50;99.90;;;;;;4981855;28;19922;-78
2022/04/09 12:58:22;;;;;;;;;;;9.20;99.90;;;;;;4977634;28;19921;-78
2022/04/09 13:00:47;;;;;;;;;;;9.80;99.90;;;;;;4980345;28;19933;-79
2022/04/09 13:03:13;;;;;;;;;;;9.90;99.90;;;;;;4977940;28;19929;-78
2022/04/09 13:05:41;;;;;;;;;;;10.00;99.90;;;;;;4961136;28;19922;-79
2022/04/09 13:08:06;;;;;;;;;;;9.90;99.90;;;;;;4978847;28;19922;-79
2022/04/09 13:10:34;;;;;;;;;;;10.20;99.90;;;;;;4979394;28;19968;-79
2022/04/09 13:13:00;;;;;;;;;;;10.40;99.90;;;;;;4979222;28;19929;-79
2022/04/09 13:15:25;;;;;;;;;;;10.30;99.90;;;;;;4978418;28;19926;-79
2022/04/09 13:17:51;;;;;;;;;;;10.10;99.90;;;;;;4961925;28;19921;-79
2022/04/09 13:20:17;;;;;;;;;;;10.10;99.90;;;;;;4978450;28;20013;-78
2022/04/09 13:22:43;;;;;;;;;;;10.10;99.90;;;;;;4977267;28;19971;-79
2022/04/09 13:25:08;;;;;;;;;;;10.40;99.90;;;;;;4978494;28;20008;-79
2022/04/09 13:27:34;;;;;;;;;;;11.00;99.90;;;;;;4961867;28;19922;-78
2022/04/09 13:30:00;;;;;;;;;;;11.40;99.90;;;;;;4978956;28;20327;-78
2022/04/09 13:32:26;;;;;;;;;;;11.40;99.90;;;;;;4978750;28;19922;-79
2022/04/09 13:34:52;;;;;;;;;;;11.00;99.90;;;;;;4977081;28;20391;-79
2022/04/09 13:37:20;;;;;;;;;;;11.00;99.90;;;;;;4977578;28;19922;-79
2022/04/09 13:39:45;;;;;;;;;;;11.00;99.90;;;;;;4953565;28;19977;-79
2022/04/09 13:42:13;;;;;;;;;;;10.60;99.90;;;;;;4962110;28;21380;-79
2022/04/09 13:44:38;;;;;;;;;;;10.60;99.90;;;;;;4976613;28;19981;-79
2022/04/09 13:47:07;;;;;;;;;;;11.10;99.90;;;;;;4976697;28;19921;-78
2022/04/09 13:49:33;;;;;;;;;;;11.40;99.90;;;;;;4977459;28;19944;-79
2022/04/09 13:51:59;;;;;;;;;;;11.80;99.90;;;;;;4977562;28;19929;-79
2022/04/09 13:54:25;;;;;;;;;;;11.40;99.90;;;;;;4959943;28;19928;-78
2022/04/09 13:56:50;;;;;;;;;;;10.90;99.90;;;;;;4975729;28;19922;-79
2022/04/09 13:59:18;;;;;;;;;;;10.30;99.90;;;;;;4976027;28;19949;-79
2022/04/09 14:01:44;;;;;;;;;;;10.20;99.90;;;;;;4975207;28;20396;-79
2022/04/09 14:04:09;;;;;;;;;;;10.50;99.90;;;;;;4973536;28;19922;-79
2022/04/09 14:06:34;;;;;;;;;;;10.60;99.90;;;;;;4973331;28;19926;-79
2022/04/09 14:09:00;;;;;;;;;;;10.60;99.90;;;;;;4977157;28;19948;-79
2022/04/09 14:11:26;;;;;;;;;;;10.60;99.90;;;;;;4960718;28;20141;-78
2022/04/09 14:13:52;;;;;;;;;;;10.90;99.90;;;;;;4977979;28;19968;-79
2022/04/09 14:16:18;;;;;;;;;;;11.20;99.90;;;;;;4975073;28;20388;-80
2022/04/09 14:18:43;;;;;;;;;;;11.50;99.90;;;;;;4976443;28;19922;-80
2022/04/09 14:21:09;;;;;;;;;;;11.50;99.90;;;;;;4969774;28;20344;-80
2022/04/09 14:23:34;;;;;;;;;;;11.40;99.90;;;;;;4976649;28;19951;-79
2022/04/09 14:25:59;;;;;;;;;;;11.60;99.90;;;;;;4976042;28;19922;-79
2022/04/09 14:28:26;;;;;;;;;;;11.60;99.90;;;;;;4975851;28;20020;-80